Terminal Aerodrome Forecast
Issued by NWS Mt. Holly, NJ

Home | Current Version | Previous Version | Text Only | Print | Product List | Glossary On
Versions: 1 2 3 4 5 6 7 8 9 10 11 12 13 14 15 16 17 18 19 20 21
000
FTUS41 KPHI 230500
TAFABE
TAF
KABE 230533Z 2306/2406 33016G24KT P6SM -RA SCT025 OVC045
     FM230900 33015G23KT P6SM -RA SCT015 OVC025
     FM231400 34017G28KT P6SM OVC025
      TEMPO 2314/2318 P6SM -RA OVC015
     FM232100 34016G24KT P6SM SCT025 OVC050
     FM240200 33010KT P6SM SCT025 OVC050=

USA.gov is the U.S. government's official web portal to all federal, state and local government web resources and services.